Stadt Bremen — V2EO5 — position and weather

sailwx.info

Track history (hours):
 
Tides and Currents Weather Stations Pressure Air Temp Water Temp Dewpoint Dewpoint Depression Visibility Wind Speed Wind Dir Waves Ship Positions

Stadt Bremen

Last reported at 2014-Jan-11 03:09 UTC. Time now 2014-Sep-03 02:08 UTC.
Position N 17°05' W 063°18'.
Warning: this ship's position is months out of date.

Length 147 m; draft 5.9 m.

Type: Ship (hazmat cat B). MMSI: 305495000.

Date/timePositionNaut miles runAvg speedWind from/ knotsBaromVisibWave heightAir tempDewpointWater temp
2014-Jan-11 03:09N 17°05' W 063°18'813.8
2014-Jan-11 02:33N 17°04' W 063°09'1413.8
2014-Jan-11 01:33N 17°04' W 062°54'1413.9
2014-Jan-11 00:34N 17°03' W 062°40'1613.3
2014-Jan-10 23:23N 17°09' W 062°25'30 0.7
2014-Jan-09 01:17N 17°37' W 062°13'7 9.4
2014-Jan-09 00:34N 17°41' W 062°19'9 9.3
2014-Jan-08 23:33N 17°47' W 062°27'9 9.1
2014-Jan-08 22:33N 17°52' W 062°34'9 8.9
2014-Jan-08 21:33N 17°58' W 062°42'9 9.0
2014-Jan-08 20:33N 18°04' W 062°49'3 2.6
2014-Jan-08 19:33N 18°06' W 062°50'1 1.1
2014-Jan-08 18:33N 18°05' W 062°49'10 9.4
2014-Jan-08 17:28N 17°60' W 062°58'4 4.2
2014-Jan-08 16:28N 18°00' W 063°03'0 0.0
2014-Jan-08 15:33N 18°00' W 063°03'0 0.0
2014-Jan-08 14:33N 18°00' W 063°03'0 0.0
2014-Jan-08 13:33N 18°00' W 063°03'0 0.0
2014-Jan-08 12:33N 18°00' W 063°03'7 7.3
2014-Jan-08 11:33N 18°01' W 063°10'1615.9
2014-Jan-08 10:33N 18°03' W 063°27'  
2014-Jan-04 07:29N 26°30' W 079°19'1414.8
2014-Jan-04 06:33N 26°36' W 079°33'1414.4
2014-Jan-04 05:33N 26°42' W 079°48'11 1.3
2014-Jan-03 21:04N 26°47' W 079°59'914.2
2014-Jan-03 20:28N 26°52' W 079°51'  
Track history (hours):
 
Tides and Currents Weather Stations Pressure Air Temp Water Temp Dewpoint Dewpoint Depression Visibility Wind Speed Wind Dir Waves Ship Positions

Stadt Bremen

Last reported at 2014-Jan-11 03:09 UTC. Time now 2014-Sep-03 02:08 UTC.
Position N 17°05' W 063°18'.
Warning: this ship's position is months out of date.

Length 147 m; draft 5.9 m.

Type: Ship (hazmat cat B). MMSI: 305495000.

Date/timePositionNaut miles runAvg speedWind from/ knotsBaromVisibWave heightAir tempDewpointWater temp
2014-Jan-11 03:09N 17°05' W 063°18'813.8
2014-Jan-11 02:33N 17°04' W 063°09'1413.8
2014-Jan-11 01:33N 17°04' W 062°54'1413.9
2014-Jan-11 00:34N 17°03' W 062°40'1613.3
2014-Jan-10 23:23N 17°09' W 062°25'30 0.7
2014-Jan-09 01:17N 17°37' W 062°13'7 9.4
2014-Jan-09 00:34N 17°41' W 062°19'9 9.3
2014-Jan-08 23:33N 17°47' W 062°27'9 9.1
2014-Jan-08 22:33N 17°52' W 062°34'9 8.9
2014-Jan-08 21:33N 17°58' W 062°42'9 9.0
2014-Jan-08 20:33N 18°04' W 062°49'3 2.6
2014-Jan-08 19:33N 18°06' W 062°50'1 1.1
2014-Jan-08 18:33N 18°05' W 062°49'10 9.4
2014-Jan-08 17:28N 17°60' W 062°58'4 4.2
2014-Jan-08 16:28N 18°00' W 063°03'0 0.0
2014-Jan-08 15:33N 18°00' W 063°03'0 0.0
2014-Jan-08 14:33N 18°00' W 063°03'0 0.0
2014-Jan-08 13:33N 18°00' W 063°03'0 0.0
2014-Jan-08 12:33N 18°00' W 063°03'7 7.3
2014-Jan-08 11:33N 18°01' W 063°10'1615.9
2014-Jan-08 10:33N 18°03' W 063°27'  
2014-Jan-04 07:29N 26°30' W 079°19'1414.8
2014-Jan-04 06:33N 26°36' W 079°33'1414.4
2014-Jan-04 05:33N 26°42' W 079°48'11 1.3
2014-Jan-03 21:04N 26°47' W 079°59'914.2
2014-Jan-03 20:28N 26°52' W 079°51'  

Dump ship's entire track history